sensor_id;sensor_type;location;lat;lon;timestamp;P1;durP1;ratioP1;P2;durP2;ratioP2
46318;SDS011;32042;50.916;2.926;2023-06-22T00:02:17;11.55;;;8.88;;
46318;SDS011;32042;50.916;2.926;2023-06-22T00:04:43;11.45;;;8.65;;
46318;SDS011;32042;50.916;2.926;2023-06-22T00:07:10;9.40;;;8.23;;
46318;SDS011;32042;50.916;2.926;2023-06-22T00:09:36;11.27;;;9.07;;
46318;SDS011;32042;50.916;2.926;2023-06-22T00:12:01;10.65;;;9.07;;
46318;SDS011;32042;50.916;2.926;2023-06-22T00:14:27;11.50;;;8.73;;
46318;SDS011;32042;50.916;2.926;2023-06-22T00:16:53;9.00;;;7.88;;
46318;SDS011;32042;50.916;2.926;2023-06-22T00:19:22;12.35;;;9.25;;
46318;SDS011;32042;50.916;2.926;2023-06-22T00:21:48;9.98;;;9.05;;
46318;SDS011;32042;50.916;2.926;2023-06-22T00:24:18;10.23;;;8.95;;
46318;SDS011;32042;50.916;2.926;2023-06-22T00:26:44;11.63;;;9.68;;
46318;SDS011;32042;50.916;2.926;2023-06-22T00:29:10;10.07;;;9.18;;
46318;SDS011;32042;50.916;2.926;2023-06-22T00:31:36;9.80;;;9.00;;
46318;SDS011;32042;50.916;2.926;2023-06-22T00:34:01;9.55;;;8.55;;
46318;SDS011;32042;50.916;2.926;2023-06-22T00:36:27;11.50;;;8.80;;
46318;SDS011;32042;50.916;2.926;2023-06-22T00:38:53;12.15;;;9.15;;
46318;SDS011;32042;50.916;2.926;2023-06-22T00:41:19;10.07;;;9.15;;
46318;SDS011;32042;50.916;2.926;2023-06-22T00:43:44;10.73;;;8.82;;
46318;SDS011;32042;50.916;2.926;2023-06-22T00:46:10;9.90;;;8.90;;
46318;SDS011;32042;50.916;2.926;2023-06-22T00:48:36;10.30;;;8.75;;
46318;SDS011;32042;50.916;2.926;2023-06-22T00:51:03;9.90;;;8.95;;
46318;SDS011;32042;50.916;2.926;2023-06-22T00:53:28;12.13;;;9.40;;
46318;SDS011;32042;50.916;2.926;2023-06-22T00:55:55;11.77;;;8.95;;
46318;SDS011;32042;50.916;2.926;2023-06-22T00:58:21;10.15;;;9.15;;
46318;SDS011;32042;50.916;2.926;2023-06-22T01:00:47;11.10;;;8.85;;
46318;SDS011;32042;50.916;2.926;2023-06-22T01:03:13;10.23;;;8.60;;
46318;SDS011;32042;50.916;2.926;2023-06-22T01:05:39;10.48;;;8.80;;
46318;SDS011;32042;50.916;2.926;2023-06-22T01:16:24;10.40;;;8.15;;
46318;SDS011;32042;50.916;2.926;2023-06-22T01:18:57;12.00;;;8.90;;
46318;SDS011;32042;50.916;2.926;2023-06-22T01:21:45;8.73;;;7.80;;
46318;SDS011;32042;50.916;2.926;2023-06-22T01:24:28;9.43;;;8.45;;
46318;SDS011;32042;50.916;2.926;2023-06-22T01:29:32;10.70;;;8.25;;
46318;SDS011;32042;50.916;2.926;2023-06-22T01:32:00;9.93;;;8.88;;
46318;SDS011;32042;50.916;2.926;2023-06-22T01:34:27;9.93;;;8.93;;
46318;SDS011;32042;50.916;2.926;2023-06-22T01:36:55;9.13;;;7.72;;
46318;SDS011;32042;50.916;2.926;2023-06-22T01:39:23;10.48;;;9.18;;
46318;SDS011;32042;50.916;2.926;2023-06-22T01:41:48;10.73;;;8.60;;
46318;SDS011;32042;50.916;2.926;2023-06-22T01:44:15;13.02;;;9.75;;
46318;SDS011;32042;50.916;2.926;2023-06-22T01:46:41;11.43;;;8.68;;
46318;SDS011;32042;50.916;2.926;2023-06-22T01:49:07;11.48;;;9.05;;
46318;SDS011;32042;50.916;2.926;2023-06-22T01:51:33;10.10;;;9.13;;
46318;SDS011;32042;50.916;2.926;2023-06-22T01:53:59;10.30;;;9.30;;
46318;SDS011;32042;50.916;2.926;2023-06-22T01:56:26;10.48;;;9.38;;
46318;SDS011;32042;50.916;2.926;2023-06-22T01:59:04;9.60;;;8.65;;
46318;SDS011;32042;50.916;2.926;2023-06-22T02:02:02;10.02;;;8.98;;
46318;SDS011;32042;50.916;2.926;2023-06-22T02:04:28;10.70;;;9.48;;
46318;SDS011;32042;50.916;2.926;2023-06-22T02:07:09;11.57;;;8.80;;
46318;SDS011;32042;50.916;2.926;2023-06-22T02:09:38;10.23;;;9.23;;
46318;SDS011;32042;50.916;2.926;2023-06-22T02:12:12;9.88;;;8.85;;
46318;SDS011;32042;50.916;2.926;2023-06-22T02:14:41;10.57;;;9.43;;
46318;SDS011;32042;50.916;2.926;2023-06-22T02:17:08;9.95;;;8.52;;
46318;SDS011;32042;50.916;2.926;2023-06-22T02:19:37;11.02;;;9.57;;
46318;SDS011;32042;50.916;2.926;2023-06-22T02:22:04;10.65;;;9.55;;
46318;SDS011;32042;50.916;2.926;2023-06-22T02:24:30;10.52;;;9.38;;
46318;SDS011;32042;50.916;2.926;2023-06-22T02:27:00;9.95;;;9.13;;
46318;SDS011;32042;50.916;2.926;2023-06-22T02:29:27;13.32;;;10.02;;
46318;SDS011;32042;50.916;2.926;2023-06-22T02:31:54;14.70;;;9.52;;
46318;SDS011;32042;50.916;2.926;2023-06-22T02:34:21;15.40;;;10.23;;
46318;SDS011;32042;50.916;2.926;2023-06-22T02:36:48;11.80;;;9.32;;
46318;SDS011;32042;50.916;2.926;2023-06-22T02:39:22;11.98;;;9.00;;
46318;SDS011;32042;50.916;2.926;2023-06-22T02:41:50;10.55;;;9.55;;
46318;SDS011;32042;50.916;2.926;2023-06-22T02:44:18;13.45;;;10.38;;
46318;SDS011;32042;50.916;2.926;2023-06-22T02:46:46;10.23;;;9.15;;
46318;SDS011;32042;50.916;2.926;2023-06-22T02:49:13;12.05;;;9.75;;
46318;SDS011;32042;50.916;2.926;2023-06-22T02:51:42;11.85;;;10.60;;
46318;SDS011;32042;50.916;2.926;2023-06-22T02:54:12;10.30;;;9.40;;
46318;SDS011;32042;50.916;2.926;2023-06-22T02:56:37;14.65;;;10.32;;
46318;SDS011;32042;50.916;2.926;2023-06-22T02:59:05;11.52;;;10.43;;
46318;SDS011;32042;50.916;2.926;2023-06-22T03:01:31;16.77;;;10.55;;
46318;SDS011;32042;50.916;2.926;2023-06-22T03:04:04;11.85;;;9.60;;
46318;SDS011;32042;50.916;2.926;2023-06-22T03:06:31;15.10;;;10.35;;
46318;SDS011;32042;50.916;2.926;2023-06-22T03:08:59;10.63;;;9.45;;
46318;SDS011;32042;50.916;2.926;2023-06-22T03:11:26;10.10;;;9.10;;
46318;SDS011;32042;50.916;2.926;2023-06-22T03:13:52;11.25;;;9.40;;
46318;SDS011;32042;50.916;2.926;2023-06-22T03:16:18;11.63;;;10.52;;
46318;SDS011;32042;50.916;2.926;2023-06-22T03:18:44;11.88;;;9.70;;
46318;SDS011;32042;50.916;2.926;2023-06-22T03:21:10;11.93;;;10.27;;
46318;SDS011;32042;50.916;2.926;2023-06-22T03:23:35;14.40;;;10.18;;
46318;SDS011;32042;50.916;2.926;2023-06-22T03:26:01;10.75;;;9.70;;
46318;SDS011;32042;50.916;2.926;2023-06-22T03:28:27;10.43;;;9.38;;
46318;SDS011;32042;50.916;2.926;2023-06-22T03:30:53;14.48;;;10.63;;
46318;SDS011;32042;50.916;2.926;2023-06-22T03:33:19;14.52;;;9.20;;
46318;SDS011;32042;50.916;2.926;2023-06-22T03:35:44;13.73;;;10.02;;
46318;SDS011;32042;50.916;2.926;2023-06-22T03:38:10;12.20;;;10.35;;
46318;SDS011;32042;50.916;2.926;2023-06-22T03:40:36;12.50;;;10.52;;
46318;SDS011;32042;50.916;2.926;2023-06-22T03:43:01;15.30;;;9.90;;
46318;SDS011;32042;50.916;2.926;2023-06-22T03:45:27;19.42;;;10.23;;
46318;SDS011;32042;50.916;2.926;2023-06-22T03:47:53;16.40;;;10.35;;
46318;SDS011;32042;50.916;2.926;2023-06-22T03:50:18;16.83;;;10.20;;
46318;SDS011;32042;50.916;2.926;2023-06-22T03:52:45;11.32;;;10.13;;
46318;SDS011;32042;50.916;2.926;2023-06-22T03:55:11;15.27;;;9.63;;
46318;SDS011;32042;50.916;2.926;2023-06-22T03:57:37;15.00;;;10.75;;
46318;SDS011;32042;50.916;2.926;2023-06-22T04:00:03;14.18;;;11.45;;
46318;SDS011;32042;50.916;2.926;2023-06-22T04:02:33;13.13;;;9.70;;
46318;SDS011;32042;50.916;2.926;2023-06-22T04:04:58;14.05;;;9.35;;
46318;SDS011;32042;50.916;2.926;2023-06-22T04:07:24;12.80;;;10.15;;
46318;SDS011;32042;50.916;2.926;2023-06-22T04:09:50;13.15;;;9.82;;
46318;SDS011;32042;50.916;2.926;2023-06-22T04:12:15;12.13;;;10.65;;
46318;SDS011;32042;50.916;2.926;2023-06-22T04:14:41;16.05;;;10.05;;
46318;SDS011;32042;50.916;2.926;2023-06-22T04:17:07;12.02;;;10.13;;
46318;SDS011;32042;50.916;2.926;2023-06-22T04:19:32;11.13;;;9.70;;
46318;SDS011;32042;50.916;2.926;2023-06-22T04:21:58;10.52;;;9.05;;
46318;SDS011;32042;50.916;2.926;2023-06-22T04:24:24;10.68;;;9.25;;
46318;SDS011;32042;50.916;2.926;2023-06-22T04:26:49;11.43;;;9.48;;
46318;SDS011;32042;50.916;2.926;2023-06-22T04:29:19;10.13;;;9.13;;
46318;SDS011;32042;50.916;2.926;2023-06-22T04:31:45;11.40;;;9.48;;
46318;SDS011;32042;50.916;2.926;2023-06-22T04:34:15;12.50;;;10.27;;
46318;SDS011;32042;50.916;2.926;2023-06-22T04:36:42;11.13;;;9.63;;
46318;SDS011;32042;50.916;2.926;2023-06-22T04:39:08;10.57;;;9.63;;
46318;SDS011;32042;50.916;2.926;2023-06-22T04:41:40;14.75;;;9.48;;
46318;SDS011;32042;50.916;2.926;2023-06-22T04:46:34;10.73;;;8.00;;
46318;SDS011;32042;50.916;2.926;2023-06-22T04:49:09;12.77;;;8.43;;
46318;SDS011;32042;50.916;2.926;2023-06-22T04:51:39;9.15;;;7.97;;
46318;SDS011;32042;50.916;2.926;2023-06-22T04:54:06;12.32;;;8.30;;
46318;SDS011;32042;50.916;2.926;2023-06-22T04:56:32;9.98;;;8.98;;
46318;SDS011;32042;50.916;2.926;2023-06-22T04:58:59;10.63;;;8.98;;
46318;SDS011;32042;50.916;2.926;2023-06-22T05:01:25;11.73;;;9.00;;
46318;SDS011;32042;50.916;2.926;2023-06-22T05:03:51;10.80;;;8.13;;
46318;SDS011;32042;50.916;2.926;2023-06-22T05:06:21;9.55;;;8.55;;
46318;SDS011;32042;50.916;2.926;2023-06-22T05:08:50;13.40;;;9.50;;
46318;SDS011;32042;50.916;2.926;2023-06-22T05:11:22;13.32;;;8.73;;
46318;SDS011;32042;50.916;2.926;2023-06-22T05:13:52;12.05;;;9.40;;
46318;SDS011;32042;50.916;2.926;2023-06-22T05:16:18;12.50;;;8.65;;
46318;SDS011;32042;50.916;2.926;2023-06-22T05:18:48;8.43;;;7.63;;
46318;SDS011;32042;50.916;2.926;2023-06-22T05:21:15;8.93;;;8.13;;
46318;SDS011;32042;50.916;2.926;2023-06-22T05:23:41;9.15;;;8.35;;
46318;SDS011;32042;50.916;2.926;2023-06-22T05:26:06;9.48;;;7.93;;
46318;SDS011;32042;50.916;2.926;2023-06-22T05:28:34;9.32;;;8.05;;
46318;SDS011;32042;50.916;2.926;2023-06-22T05:31:00;10.15;;;8.23;;
46318;SDS011;32042;50.916;2.926;2023-06-22T05:33:25;8.95;;;7.68;;
46318;SDS011;32042;50.916;2.926;2023-06-22T05:35:51;8.27;;;7.00;;
46318;SDS011;32042;50.916;2.926;2023-06-22T05:38:17;10.38;;;7.68;;
46318;SDS011;32042;50.916;2.926;2023-06-22T05:40:43;7.70;;;7.00;;
46318;SDS011;32042;50.916;2.926;2023-06-22T05:43:08;8.15;;;7.35;;
46318;SDS011;32042;50.916;2.926;2023-06-22T05:45:34;7.95;;;7.18;;
46318;SDS011;32042;50.916;2.926;2023-06-22T05:48:00;8.50;;;7.65;;
46318;SDS011;32042;50.916;2.926;2023-06-22T05:50:26;7.22;;;6.63;;
46318;SDS011;32042;50.916;2.926;2023-06-22T05:52:52;7.38;;;6.68;;
46318;SDS011;32042;50.916;2.926;2023-06-22T05:55:17;8.95;;;7.47;;
46318;SDS011;32042;50.916;2.926;2023-06-22T05:57:44;9.38;;;7.18;;
46318;SDS011;32042;50.916;2.926;2023-06-22T06:00:10;8.85;;;5.32;;
46318;SDS011;32042;50.916;2.926;2023-06-22T06:02:37;5.55;;;5.05;;
46318;SDS011;32042;50.916;2.926;2023-06-22T06:05:08;7.25;;;4.97;;
46318;SDS011;32042;50.916;2.926;2023-06-22T06:07:35;4.75;;;4.35;;
46318;SDS011;32042;50.916;2.926;2023-06-22T06:10:02;7.05;;;5.43;;
46318;SDS011;32042;50.916;2.926;2023-06-22T06:12:29;4.43;;;4.03;;
46318;SDS011;32042;50.916;2.926;2023-06-22T06:14:55;5.53;;;4.47;;
46318;SDS011;32042;50.916;2.926;2023-06-22T06:17:21;4.93;;;4.30;;
46318;SDS011;32042;50.916;2.926;2023-06-22T06:19:47;5.00;;;4.20;;
46318;SDS011;32042;50.916;2.926;2023-06-22T06:22:13;5.20;;;4.57;;
46318;SDS011;32042;50.916;2.926;2023-06-22T06:24:38;5.07;;;4.57;;
46318;SDS011;32042;50.916;2.926;2023-06-22T06:27:04;6.95;;;4.70;;
46318;SDS011;32042;50.916;2.926;2023-06-22T06:29:30;6.85;;;5.30;;
46318;SDS011;32042;50.916;2.926;2023-06-22T06:31:56;4.95;;;4.55;;
46318;SDS011;32042;50.916;2.926;2023-06-22T06:34:22;5.20;;;4.80;;
46318;SDS011;32042;50.916;2.926;2023-06-22T06:36:48;6.32;;;5.45;;
46318;SDS011;32042;50.916;2.926;2023-06-22T06:39:14;6.13;;;4.75;;
46318;SDS011;32042;50.916;2.926;2023-06-22T06:41:41;5.30;;;4.90;;
46318;SDS011;32042;50.916;2.926;2023-06-22T06:44:06;6.32;;;4.95;;
46318;SDS011;32042;50.916;2.926;2023-06-22T06:46:32;6.05;;;5.47;;
46318;SDS011;32042;50.916;2.926;2023-06-22T06:48:58;5.32;;;4.82;;
46318;SDS011;32042;50.916;2.926;2023-06-22T06:51:24;6.75;;;5.07;;
46318;SDS011;32042;50.916;2.926;2023-06-22T06:53:49;5.30;;;4.80;;
46318;SDS011;32042;50.916;2.926;2023-06-22T06:56:15;6.22;;;5.03;;
46318;SDS011;32042;50.916;2.926;2023-06-22T06:58:41;5.07;;;4.68;;
46318;SDS011;32042;50.916;2.926;2023-06-22T07:01:08;5.47;;;4.75;;
46318;SDS011;32042;50.916;2.926;2023-06-22T07:03:33;6.45;;;5.05;;
46318;SDS011;32042;50.916;2.926;2023-06-22T07:05:59;6.63;;;5.93;;
46318;SDS011;32042;50.916;2.926;2023-06-22T07:08:25;7.00;;;5.18;;
46318;SDS011;32042;50.916;2.926;2023-06-22T07:10:54;5.80;;;5.30;;
46318;SDS011;32042;50.916;2.926;2023-06-22T07:13:20;6.90;;;5.90;;
46318;SDS011;32042;50.916;2.926;2023-06-22T07:15:46;6.68;;;5.90;;
46318;SDS011;32042;50.916;2.926;2023-06-22T07:18:11;6.97;;;6.18;;
46318;SDS011;32042;50.916;2.926;2023-06-22T07:20:37;7.38;;;6.65;;
46318;SDS011;32042;50.916;2.926;2023-06-22T07:23:04;7.40;;;6.20;;
46318;SDS011;32042;50.916;2.926;2023-06-22T07:25:30;7.57;;;6.88;;
46318;SDS011;32042;50.916;2.926;2023-06-22T07:30:26;7.03;;;6.35;;
46318;SDS011;32042;50.916;2.926;2023-06-22T07:32:52;7.82;;;6.28;;
46318;SDS011;32042;50.916;2.926;2023-06-22T07:35:18;7.10;;;6.32;;
46318;SDS011;32042;50.916;2.926;2023-06-22T07:37:44;6.22;;;5.72;;
46318;SDS011;32042;50.916;2.926;2023-06-22T07:40:10;8.35;;;6.57;;
46318;SDS011;32042;50.916;2.926;2023-06-22T07:42:36;7.47;;;6.80;;
46318;SDS011;32042;50.916;2.926;2023-06-22T07:45:06;7.75;;;7.05;;
46318;SDS011;32042;50.916;2.926;2023-06-22T07:47:33;8.23;;;7.22;;
46318;SDS011;32042;50.916;2.926;2023-06-22T07:50:00;8.63;;;7.78;;
46318;SDS011;32042;50.916;2.926;2023-06-22T07:52:27;8.00;;;7.28;;
46318;SDS011;32042;50.916;2.926;2023-06-22T07:54:53;8.20;;;7.50;;
46318;SDS011;32042;50.916;2.926;2023-06-22T07:57:19;10.10;;;8.52;;
46318;SDS011;32042;50.916;2.926;2023-06-22T07:59:45;9.23;;;8.52;;
46318;SDS011;32042;50.916;2.926;2023-06-22T08:02:11;8.85;;;8.15;;
46318;SDS011;32042;50.916;2.926;2023-06-22T08:04:37;9.15;;;8.05;;
46318;SDS011;32042;50.916;2.926;2023-06-22T08:07:03;9.63;;;8.73;;
46318;SDS011;32042;50.916;2.926;2023-06-22T08:09:30;11.07;;;8.13;;
46318;SDS011;32042;50.916;2.926;2023-06-22T08:11:57;9.30;;;8.18;;
46318;SDS011;32042;50.916;2.926;2023-06-22T08:14:23;9.63;;;8.73;;
46318;SDS011;32042;50.916;2.926;2023-06-22T08:16:54;9.70;;;8.73;;
46318;SDS011;32042;50.916;2.926;2023-06-22T08:19:20;11.18;;;9.45;;
46318;SDS011;32042;50.916;2.926;2023-06-22T08:21:46;9.68;;;8.65;;
46318;SDS011;32042;50.916;2.926;2023-06-22T08:24:12;9.57;;;8.77;;
46318;SDS011;32042;50.916;2.926;2023-06-22T08:26:38;9.63;;;8.82;;
46318;SDS011;32042;50.916;2.926;2023-06-22T08:29:03;9.73;;;8.82;;
46318;SDS011;32042;50.916;2.926;2023-06-22T08:31:30;10.57;;;9.57;;
46318;SDS011;32042;50.916;2.926;2023-06-22T08:33:57;10.93;;;9.88;;
46318;SDS011;32042;50.916;2.926;2023-06-22T08:36:22;9.90;;;9.00;;
46318;SDS011;32042;50.916;2.926;2023-06-22T08:38:48;11.20;;;10.10;;
46318;SDS011;32042;50.916;2.926;2023-06-22T08:41:16;10.88;;;9.90;;
46318;SDS011;32042;50.916;2.926;2023-06-22T08:43:42;10.70;;;9.70;;
46318;SDS011;32042;50.916;2.926;2023-06-22T08:46:09;10.80;;;9.80;;
46318;SDS011;32042;50.916;2.926;2023-06-22T08:48:36;10.25;;;9.40;;
46318;SDS011;32042;50.916;2.926;2023-06-22T08:51:01;11.55;;;9.65;;
46318;SDS011;32042;50.916;2.926;2023-06-22T08:53:28;11.30;;;9.18;;
46318;SDS011;32042;50.916;2.926;2023-06-22T08:55:54;10.50;;;9.50;;
46318;SDS011;32042;50.916;2.926;2023-06-22T08:58:19;10.63;;;9.63;;
46318;SDS011;32042;50.916;2.926;2023-06-22T09:00:46;10.73;;;9.75;;
46318;SDS011;32042;50.916;2.926;2023-06-22T09:03:12;10.52;;;9.63;;
46318;SDS011;32042;50.916;2.926;2023-06-22T09:05:38;11.00;;;10.02;;
46318;SDS011;32042;50.916;2.926;2023-06-22T09:08:04;11.32;;;10.23;;
46318;SDS011;32042;50.916;2.926;2023-06-22T09:10:30;10.95;;;9.85;;
46318;SDS011;32042;50.916;2.926;2023-06-22T09:12:56;11.43;;;10.32;;
46318;SDS011;32042;50.916;2.926;2023-06-22T09:15:22;11.35;;;10.25;;
46318;SDS011;32042;50.916;2.926;2023-06-22T09:17:48;11.45;;;10.35;;
46318;SDS011;32042;50.916;2.926;2023-06-22T09:20:14;15.25;;;11.00;;
46318;SDS011;32042;50.916;2.926;2023-06-22T09:22:40;14.32;;;10.70;;
46318;SDS011;32042;50.916;2.926;2023-06-22T09:25:06;9.20;;;8.45;;
46318;SDS011;32042;50.916;2.926;2023-06-22T09:27:32;10.40;;;9.32;;
46318;SDS011;32042;50.916;2.926;2023-06-22T09:29:58;11.32;;;10.38;;
46318;SDS011;32042;50.916;2.926;2023-06-22T09:32:27;11.35;;;10.15;;
46318;SDS011;32042;50.916;2.926;2023-06-22T09:34:52;10.70;;;9.75;;
46318;SDS011;32042;50.916;2.926;2023-06-22T09:37:18;11.50;;;10.50;;
46318;SDS011;32042;50.916;2.926;2023-06-22T09:39:44;11.68;;;10.65;;
46318;SDS011;32042;50.916;2.926;2023-06-22T09:42:09;11.55;;;10.55;;
46318;SDS011;32042;50.916;2.926;2023-06-22T09:44:35;11.57;;;10.38;;
46318;SDS011;32042;50.916;2.926;2023-06-22T09:47:01;13.20;;;10.10;;
46318;SDS011;32042;50.916;2.926;2023-06-22T09:49:27;11.57;;;10.38;;
46318;SDS011;32042;50.916;2.926;2023-06-22T09:51:52;12.40;;;9.90;;
46318;SDS011;32042;50.916;2.926;2023-06-22T09:54:18;11.35;;;10.25;;
46318;SDS011;32042;50.916;2.926;2023-06-22T09:56:44;12.30;;;10.93;;
46318;SDS011;32042;50.916;2.926;2023-06-22T09:59:09;13.88;;;11.95;;
46318;SDS011;32042;50.916;2.926;2023-06-22T10:01:35;12.75;;;11.52;;
46318;SDS011;32042;50.916;2.926;2023-06-22T10:04:02;12.18;;;11.10;;
46318;SDS011;32042;50.916;2.926;2023-06-22T10:06:27;12.95;;;11.60;;
46318;SDS011;32042;50.916;2.926;2023-06-22T10:08:53;12.20;;;11.02;;
46318;SDS011;32042;50.916;2.926;2023-06-22T10:11:19;13.68;;;11.75;;
46318;SDS011;32042;50.916;2.926;2023-06-22T10:13:45;14.25;;;11.10;;
46318;SDS011;32042;50.916;2.926;2023-06-22T10:16:10;11.43;;;10.35;;
46318;SDS011;32042;50.916;2.926;2023-06-22T10:18:36;15.65;;;10.40;;
46318;SDS011;32042;50.916;2.926;2023-06-22T10:21:02;12.50;;;11.32;;
46318;SDS011;32042;50.916;2.926;2023-06-22T10:23:28;12.00;;;10.88;;
46318;SDS011;32042;50.916;2.926;2023-06-22T10:25:53;14.32;;;12.10;;
46318;SDS011;32042;50.916;2.926;2023-06-22T10:28:19;12.65;;;11.00;;
46318;SDS011;32042;50.916;2.926;2023-06-22T10:30:44;13.95;;;12.48;;
46318;SDS011;32042;50.916;2.926;2023-06-22T10:33:11;14.30;;;11.93;;
46318;SDS011;32042;50.916;2.926;2023-06-22T10:35:37;14.65;;;13.27;;
46318;SDS011;32042;50.916;2.926;2023-06-22T10:38:03;16.30;;;12.88;;
46318;SDS011;32042;50.916;2.926;2023-06-22T10:40:28;15.57;;;13.85;;
46318;SDS011;32042;50.916;2.926;2023-06-22T10:42:54;15.27;;;13.77;;
46318;SDS011;32042;50.916;2.926;2023-06-22T10:45:20;16.77;;;14.57;;
46318;SDS011;32042;50.916;2.926;2023-06-22T10:47:46;17.40;;;15.73;;
46318;SDS011;32042;50.916;2.926;2023-06-22T10:50:12;17.83;;;15.75;;
46318;SDS011;32042;50.916;2.926;2023-06-22T10:52:38;18.35;;;16.38;;
46318;SDS011;32042;50.916;2.926;2023-06-22T10:55:04;20.08;;;17.17;;
46318;SDS011;32042;50.916;2.926;2023-06-22T10:57:30;21.48;;;16.90;;
46318;SDS011;32042;50.916;2.926;2023-06-22T10:59:56;20.05;;;17.23;;
46318;SDS011;32042;50.916;2.926;2023-06-22T11:02:22;25.50;;;18.08;;
46318;SDS011;32042;50.916;2.926;2023-06-22T11:04:48;21.40;;;18.40;;
46318;SDS011;32042;50.916;2.926;2023-06-22T11:07:15;25.35;;;18.63;;
46318;SDS011;32042;50.916;2.926;2023-06-22T11:09:40;22.05;;;19.85;;
46318;SDS011;32042;50.916;2.926;2023-06-22T11:12:08;22.23;;;19.88;;
46318;SDS011;32042;50.916;2.926;2023-06-22T11:14:34;21.55;;;19.23;;
46318;SDS011;32042;50.916;2.926;2023-06-22T11:17:00;22.08;;;19.70;;
46318;SDS011;32042;50.916;2.926;2023-06-22T11:19:25;22.20;;;19.98;;
46318;SDS011;32042;50.916;2.926;2023-06-22T11:21:51;25.05;;;21.63;;
46318;SDS011;32042;50.916;2.926;2023-06-22T11:24:17;24.08;;;20.92;;
46318;SDS011;32042;50.916;2.926;2023-06-22T11:26:43;25.13;;;21.88;;
46318;SDS011;32042;50.916;2.926;2023-06-22T11:29:08;25.15;;;22.45;;
46318;SDS011;32042;50.916;2.926;2023-06-22T11:31:34;26.35;;;23.08;;
46318;SDS011;32042;50.916;2.926;2023-06-22T11:34:01;24.40;;;21.88;;
46318;SDS011;32042;50.916;2.926;2023-06-22T11:36:27;24.25;;;21.42;;
46318;SDS011;32042;50.916;2.926;2023-06-22T11:38:54;25.83;;;22.40;;
46318;SDS011;32042;50.916;2.926;2023-06-22T11:41:20;26.52;;;21.58;;
46318;SDS011;32042;50.916;2.926;2023-06-22T11:43:45;25.08;;;20.40;;
46318;SDS011;32042;50.916;2.926;2023-06-22T11:46:11;23.55;;;21.02;;
46318;SDS011;32042;50.916;2.926;2023-06-22T11:48:37;22.63;;;20.52;;
46318;SDS011;32042;50.916;2.926;2023-06-22T11:51:03;23.20;;;20.33;;
46318;SDS011;32042;50.916;2.926;2023-06-22T11:53:29;22.88;;;20.35;;
46318;SDS011;32042;50.916;2.926;2023-06-22T11:55:55;23.92;;;21.08;;
46318;SDS011;32042;50.916;2.926;2023-06-22T11:58:21;22.95;;;19.85;;
46318;SDS011;32042;50.916;2.926;2023-06-22T12:00:47;22.30;;;19.98;;
46318;SDS011;32042;50.916;2.926;2023-06-22T12:03:13;24.05;;;21.63;;
46318;SDS011;32042;50.916;2.926;2023-06-22T12:05:41;23.40;;;20.80;;
46318;SDS011;32042;50.916;2.926;2023-06-22T12:08:07;25.85;;;23.15;;
46318;SDS011;32042;50.916;2.926;2023-06-22T12:10:33;32.28;;;24.00;;
46318;SDS011;32042;50.916;2.926;2023-06-22T12:12:59;26.83;;;23.20;;
46318;SDS011;32042;50.916;2.926;2023-06-22T12:15:25;28.73;;;24.10;;
46318;SDS011;32042;50.916;2.926;2023-06-22T12:17:51;27.58;;;23.38;;
46318;SDS011;32042;50.916;2.926;2023-06-22T12:20:17;24.50;;;21.92;;
46318;SDS011;32042;50.916;2.926;2023-06-22T12:22:43;26.08;;;22.98;;
46318;SDS011;32042;50.916;2.926;2023-06-22T12:25:09;26.15;;;22.90;;
46318;SDS011;32042;50.916;2.926;2023-06-22T12:27:35;29.02;;;23.33;;
46318;SDS011;32042;50.916;2.926;2023-06-22T12:30:01;28.48;;;24.27;;
46318;SDS011;32042;50.916;2.926;2023-06-22T12:32:28;30.38;;;22.80;;
46318;SDS011;32042;50.916;2.926;2023-06-22T12:34:53;25.30;;;22.58;;
46318;SDS011;32042;50.916;2.926;2023-06-22T12:37:20;31.00;;;23.00;;
46318;SDS011;32042;50.916;2.926;2023-06-22T12:39:45;29.02;;;22.55;;
46318;SDS011;32042;50.916;2.926;2023-06-22T12:42:11;23.83;;;21.33;;
46318;SDS011;32042;50.916;2.926;2023-06-22T12:44:37;23.20;;;20.30;;
46318;SDS011;32042;50.916;2.926;2023-06-22T12:47:04;27.88;;;22.13;;
46318;SDS011;32042;50.916;2.926;2023-06-22T12:49:30;22.83;;;19.77;;
46318;SDS011;32042;50.916;2.926;2023-06-22T12:51:56;27.10;;;21.65;;
46318;SDS011;32042;50.916;2.926;2023-06-22T12:54:22;23.95;;;20.02;;
46318;SDS011;32042;50.916;2.926;2023-06-22T12:56:49;22.45;;;20.05;;
46318;SDS011;32042;50.916;2.926;2023-06-22T12:59:15;23.98;;;20.23;;
46318;SDS011;32042;50.916;2.926;2023-06-22T13:01:42;23.83;;;21.10;;
46318;SDS011;32042;50.916;2.926;2023-06-22T13:04:09;22.35;;;19.95;;
46318;SDS011;32042;50.916;2.926;2023-06-22T13:06:36;28.95;;;22.20;;
46318;SDS011;32042;50.916;2.926;2023-06-22T13:09:02;25.85;;;21.55;;
46318;SDS011;32042;50.916;2.926;2023-06-22T13:11:30;25.38;;;22.17;;
46318;SDS011;32042;50.916;2.926;2023-06-22T13:13:56;23.77;;;19.98;;
46318;SDS011;32042;50.916;2.926;2023-06-22T13:16:21;23.20;;;20.55;;
46318;SDS011;32042;50.916;2.926;2023-06-22T13:18:47;29.10;;;22.92;;
46318;SDS011;32042;50.916;2.926;2023-06-22T13:21:13;25.88;;;21.60;;
46318;SDS011;32042;50.916;2.926;2023-06-22T13:23:39;27.70;;;22.95;;
46318;SDS011;32042;50.916;2.926;2023-06-22T13:26:05;27.50;;;21.02;;
46318;SDS011;32042;50.916;2.926;2023-06-22T13:28:30;25.35;;;20.95;;
46318;SDS011;32042;50.916;2.926;2023-06-22T13:30:57;27.73;;;22.33;;
46318;SDS011;32042;50.916;2.926;2023-06-22T13:33:22;25.20;;;21.05;;
46318;SDS011;32042;50.916;2.926;2023-06-22T13:35:48;26.40;;;21.15;;
46318;SDS011;32042;50.916;2.926;2023-06-22T13:38:14;22.95;;;19.85;;
46318;SDS011;32042;50.916;2.926;2023-06-22T13:40:40;22.15;;;19.77;;
46318;SDS011;32042;50.916;2.926;2023-06-22T13:43:06;24.30;;;19.60;;
46318;SDS011;32042;50.916;2.926;2023-06-22T13:45:31;25.60;;;20.23;;
46318;SDS011;32042;50.916;2.926;2023-06-22T13:47:57;21.08;;;18.90;;
46318;SDS011;32042;50.916;2.926;2023-06-22T13:50:23;20.48;;;18.35;;
46318;SDS011;32042;50.916;2.926;2023-06-22T13:52:49;21.42;;;19.17;;
46318;SDS011;32042;50.916;2.926;2023-06-22T13:55:15;21.73;;;19.42;;
46318;SDS011;32042;50.916;2.926;2023-06-22T13:57:40;19.33;;;17.20;;
46318;SDS011;32042;50.916;2.926;2023-06-22T14:00:07;19.55;;;17.50;;
46318;SDS011;32042;50.916;2.926;2023-06-22T14:02:33;19.67;;;16.95;;
46318;SDS011;32042;50.916;2.926;2023-06-22T14:04:59;19.80;;;17.70;;
46318;SDS011;32042;50.916;2.926;2023-06-22T14:07:25;18.33;;;16.25;;
46318;SDS011;32042;50.916;2.926;2023-06-22T14:09:51;18.88;;;17.00;;
46318;SDS011;32042;50.916;2.926;2023-06-22T14:12:16;18.10;;;16.40;;
46318;SDS011;32042;50.916;2.926;2023-06-22T14:14:45;17.73;;;15.82;;
46318;SDS011;32042;50.916;2.926;2023-06-22T14:17:11;18.15;;;16.35;;
46318;SDS011;32042;50.916;2.926;2023-06-22T14:19:37;16.98;;;15.20;;
46318;SDS011;32042;50.916;2.926;2023-06-22T14:22:02;16.35;;;14.70;;
46318;SDS011;32042;50.916;2.926;2023-06-22T14:24:28;16.48;;;14.73;;
46318;SDS011;32042;50.916;2.926;2023-06-22T14:26:54;18.33;;;13.88;;
46318;SDS011;32042;50.916;2.926;2023-06-22T14:29:21;15.93;;;14.20;;
46318;SDS011;32042;50.916;2.926;2023-06-22T14:31:47;12.60;;;11.40;;
46318;SDS011;32042;50.916;2.926;2023-06-22T14:34:14;11.85;;;10.73;;
46318;SDS011;32042;50.916;2.926;2023-06-22T14:36:40;13.80;;;12.48;;
46318;SDS011;32042;50.916;2.926;2023-06-22T14:39:06;12.85;;;11.73;;
46318;SDS011;32042;50.916;2.926;2023-06-22T14:41:32;15.48;;;12.52;;
46318;SDS011;32042;50.916;2.926;2023-06-22T14:43:57;13.40;;;12.15;;